Time;durP1;ratioP1;P1;durP2;ratioP2;P2;SDS_P1;SDS_P2;PMS_P1;PMS_P2;Temp;Humidity;BMP_temperature;BMP_pressure;BME280_temperature;BME280_humidity;BME280_pressure;Samples;Min_cycle;Max_cycle;Signal;HPM_P1;HPM_P2
2022/10/02 00:00:05;;;;;;;16.35;4.20;;;10.90;99.90;;;;;;5071747;28;20063;-44
2022/10/02 00:02:39;;;;;;;15.73;4.63;;;11.00;99.90;;;;;;5071350;28;20028;-45
2022/10/02 00:05:29;;;;;;;13.52;3.95;;;10.90;99.90;;;;;;5071816;28;20111;-45
2022/10/02 00:07:57;;;;;;;13.02;3.65;;;10.90;99.90;;;;;;5071691;28;20020;-48
2022/10/02 00:10:30;;;;;;;17.08;4.03;;;11.00;99.90;;;;;;5071715;28;20028;-44
2022/10/02 00:13:11;;;;;;;19.05;4.15;;;11.00;99.90;;;;;;5071291;28;20028;-44
2022/10/02 00:15:39;;;;;;;19.45;4.15;;;11.00;99.90;;;;;;5071619;28;20024;-44
2022/10/02 00:18:15;;;;;;;20.42;3.92;;;11.00;99.90;;;;;;5063635;28;20040;-44
2022/10/02 00:21:00;;;;;;;14.60;4.47;;;11.10;99.90;;;;;;5065227;28;20039;-46
2022/10/02 00:23:30;;;;;;;14.55;3.35;;;11.10;99.90;;;;;;5071154;28;20424;-46
2022/10/02 00:26:09;;;;;;;16.90;3.63;;;11.10;99.90;;;;;;5071800;28;20029;-44
2022/10/02 00:28:55;;;;;;;25.50;5.28;;;11.00;99.90;;;;;;5071230;28;20055;-45
2022/10/02 00:31:20;;;;;;;16.23;3.90;;;11.10;99.90;;;;;;5071291;28;20024;-45
2022/10/02 00:33:59;;;;;;;15.75;3.83;;;11.10;99.90;;;;;;5070971;28;20025;-45
2022/10/02 00:36:50;;;;;;;17.27;5.32;;;11.10;99.90;;;;;;5071827;28;20020;-47
2022/10/02 00:39:24;;;;;;;18.90;4.90;;;11.10;99.90;;;;;;5071302;28;20020;-47
2022/10/02 00:42:26;;;;;;;14.77;3.60;;;11.10;99.90;;;;;;5071269;28;20344;-48
2022/10/02 00:45:29;;;;;;;16.90;4.15;;;11.10;99.90;;;;;;5070869;28;20028;-47
2022/10/02 00:48:26;;;;;;;24.30;3.67;;;11.20;99.90;;;;;;5064185;28;20374;-49
2022/10/02 00:51:17;;;;;;;17.10;3.55;;;11.20;99.90;;;;;;5061597;28;20107;-46
2022/10/02 00:54:08;;;;;;;12.93;3.47;;;11.20;99.90;;;;;;5059540;28;20044;-47
2022/10/02 00:56:44;;;;;;;17.05;3.15;;;11.20;99.90;;;;;;5071116;28;20029;-46
2022/10/02 00:59:36;;;;;;;16.75;5.15;;;11.20;99.90;;;;;;5070519;28;20115;-44
2022/10/02 01:02:27;;;;;;;13.70;3.28;;;11.20;99.90;;;;;;5070815;28;20062;-45
2022/10/02 01:04:53;;;;;;;14.73;4.00;;;11.30;99.90;;;;;;5067992;28;20025;-44
2022/10/02 01:07:20;;;;;;;6.35;3.28;;;11.30;99.90;;;;;;5068805;28;20459;-46
2022/10/02 01:09:46;;;;;;;21.10;3.67;;;11.40;99.90;;;;;;5070620;28;20060;-46
2022/10/02 01:12:13;;;;;;;13.30;3.58;;;11.50;99.90;;;;;;5070376;28;20060;-47
2022/10/02 01:14:39;;;;;;;13.85;3.42;;;11.50;99.90;;;;;;5069867;28;20039;-45
2022/10/02 01:17:21;;;;;;;9.80;2.78;;;11.60;99.90;;;;;;5062248;28;20025;-47
2022/10/02 01:19:47;;;;;;;8.48;2.72;;;11.60;99.90;;;;;;5061948;28;20090;-46
2022/10/02 01:22:24;;;;;;;11.07;2.60;;;11.60;99.90;;;;;;5070381;28;20024;-47
2022/10/02 01:24:52;;;;;;;11.23;2.92;;;11.60;99.90;;;;;;5070199;28;20029;-46
2022/10/02 01:27:18;;;;;;;13.75;2.80;;;11.70;99.90;;;;;;5069114;28;20020;-46
2022/10/02 01:29:46;;;;;;;8.48;2.55;;;11.60;99.90;;;;;;5069733;28;20039;-44
2022/10/02 01:32:12;;;;;;;10.38;2.85;;;11.60;99.90;;;;;;5070090;28;20481;-45
2022/10/02 01:34:38;;;;;;;11.27;2.80;;;11.60;99.90;;;;;;5069775;28;20059;-44
2022/10/02 01:37:05;;;;;;;11.77;2.85;;;11.60;99.90;;;;;;5069791;28;20111;-44
2022/10/02 01:39:31;;;;;;;18.88;3.47;;;11.60;99.90;;;;;;5069760;28;20485;-45
2022/10/02 01:41:57;;;;;;;10.20;2.58;;;11.60;99.90;;;;;;5068602;28;20045;-48
2022/10/02 01:44:23;;;;;;;13.55;2.67;;;11.60;99.90;;;;;;5069235;28;20427;-47
2022/10/02 01:47:06;;;;;;;8.82;3.03;;;11.50;99.90;;;;;;5059196;28;20022;-45
2022/10/02 01:49:46;;;;;;;12.68;2.85;;;11.50;99.90;;;;;;5050756;28;20029;-46
2022/10/02 01:52:30;;;;;;;10.50;3.03;;;11.50;99.90;;;;;;5048274;28;20037;-45
2022/10/02 01:55:11;;;;;;;11.43;2.58;;;11.40;99.90;;;;;;5049752;28;20028;-44
2022/10/02 01:57:53;;;;;;;9.85;2.67;;;11.40;99.90;;;;;;5049669;28;20086;-44
2022/10/02 02:00:24;;;;;;;9.98;2.60;;;11.30;99.90;;;;;;5049432;28;20029;-45
2022/10/02 02:03:43;;;;;;;6.43;2.40;;;11.30;99.90;;;;;;5049358;28;20048;-44
2022/10/02 02:06:27;;;;;;;18.08;3.58;;;11.30;99.90;;;;;;5029490;28;20042;-46
2022/10/02 02:09:18;;;;;;;10.85;3.78;;;11.20;99.90;;;;;;5049358;28;20027;-43
2022/10/02 02:12:02;;;;;;;12.93;3.38;;;11.20;99.90;;;;;;5049411;28;20621;-43
2022/10/02 02:14:34;;;;;;;12.35;3.22;;;11.20;99.90;;;;;;5048975;28;20029;-43
2022/10/02 02:17:10;;;;;;;11.77;4.10;;;11.10;99.90;;;;;;5044965;28;20029;-43
2022/10/02 02:19:45;;;;;;;10.75;3.08;;;11.10;99.90;;;;;;5057720;28;20121;-43
2022/10/02 02:22:27;;;;;;;14.73;3.40;;;11.10;99.90;;;;;;5049249;28;20090;-43
2022/10/02 02:25:02;;;;;;;18.70;3.67;;;11.10;99.90;;;;;;5049325;28;20029;-43
2022/10/02 02:27:33;;;;;;;12.95;3.40;;;11.10;99.90;;;;;;5048323;28;20048;-42
2022/10/02 02:30:06;;;;;;;10.40;3.78;;;11.10;99.90;;;;;;5049292;28;20037;-44
2022/10/02 02:32:36;;;;;;;13.70;3.95;;;11.10;99.90;;;;;;5049167;28;20025;-44
2022/10/02 02:35:10;;;;;;;13.75;3.80;;;11.10;99.90;;;;;;5049468;28;20028;-44
2022/10/02 02:37:39;;;;;;;12.90;3.25;;;11.10;99.90;;;;;;5049149;28;20569;-44
2022/10/02 02:40:17;;;;;;;10.82;3.08;;;11.10;99.90;;;;;;5049375;28;20029;-43
2022/10/02 02:42:56;;;;;;;14.60;3.83;;;11.00;99.90;;;;;;5052243;28;20025;-45
2022/10/02 02:45:28;;;;;;;11.55;3.17;;;11.00;99.90;;;;;;5051889;28;20509;-44
2022/10/02 02:47:59;;;;;;;13.25;2.83;;;11.00;99.90;;;;;;5053741;28;20491;-43
2022/10/02 02:50:47;;;;;;;17.45;4.00;;;11.00;99.90;;;;;;5056995;28;20668;-43
2022/10/02 02:53:18;;;;;;;11.32;3.35;;;10.90;99.90;;;;;;5072511;28;20315;-43
2022/10/02 02:55:49;;;;;;;15.00;3.72;;;10.90;99.90;;;;;;5073309;28;20220;-44
2022/10/02 02:58:21;;;;;;;14.88;3.28;;;10.90;99.90;;;;;;5071783;28;20027;-44
2022/10/02 03:00:47;;;;;;;8.30;3.90;;;10.80;99.90;;;;;;5073209;28;20029;-44
2022/10/02 03:03:13;;;;;;;12.55;4.05;;;10.80;99.90;;;;;;5071201;28;20409;-44
2022/10/02 03:05:43;;;;;;;18.52;3.95;;;10.80;99.90;;;;;;5072927;28;20021;-45
2022/10/02 03:08:21;;;;;;;14.02;4.43;;;10.80;99.90;;;;;;5071443;28;20074;-44
2022/10/02 03:11:09;;;;;;;15.88;4.20;;;10.70;99.90;;;;;;5071737;28;20039;-44
2022/10/02 03:13:55;;;;;;;17.85;6.03;;;10.70;99.90;;;;;;5071320;28;20066;-45
2022/10/02 03:16:49;;;;;;;24.52;5.05;;;10.80;99.90;;;;;;5070344;28;20063;-45
2022/10/02 03:19:52;;;;;;;9.27;3.88;;;10.80;99.90;;;;;;5061207;28;20021;-45
2022/10/02 03:22:24;;;;;;;16.08;5.03;;;10.80;99.90;;;;;;5072053;28;20400;-45
2022/10/02 03:24:58;;;;;;;20.55;5.88;;;10.70;99.90;;;;;;5072578;28;20029;-45
2022/10/02 03:27:49;;;;;;;18.90;5.82;;;10.80;99.90;;;;;;5060362;28;20108;-45
2022/10/02 03:30:19;;;;;;;13.68;4.80;;;10.70;99.90;;;;;;5032768;28;20030;-44
2022/10/02 03:32:47;;;;;;;19.87;5.20;;;10.70;99.90;;;;;;5031904;28;20034;-46
2022/10/02 03:35:13;;;;;;;20.60;5.00;;;10.70;99.90;;;;;;5031527;28;20030;-44
2022/10/02 03:37:43;;;;;;;13.27;4.53;;;10.70;99.90;;;;;;5032491;28;20056;-45
2022/10/02 03:40:09;;;;;;;21.40;6.38;;;10.70;99.90;;;;;;5032169;28;20437;-45
2022/10/02 03:42:35;;;;;;;23.20;5.65;;;10.70;99.90;;;;;;5031793;28;20100;-44
2022/10/02 03:45:01;;;;;;;21.30;6.22;;;10.60;99.90;;;;;;5030636;28;20057;-44
2022/10/02 03:47:27;;;;;;;24.65;6.53;;;10.70;99.90;;;;;;5038793;28;20347;-45
2022/10/02 03:49:52;;;;;;;24.50;8.05;;;10.70;99.90;;;;;;5063659;28;20474;-45
2022/10/02 03:52:21;;;;;;;29.05;8.40;;;10.70;99.90;;;;;;5071224;28;20024;-44
2022/10/02 03:54:54;;;;;;;22.00;7.28;;;10.70;99.90;;;;;;5072058;28;20087;-44
2022/10/02 03:57:23;;;;;;;23.67;8.70;;;10.70;99.90;;;;;;5072157;28;20082;-44
2022/10/02 04:00:07;;;;;;;19.17;6.80;;;10.70;99.90;;;;;;5071825;28;20393;-43
2022/10/02 04:02:57;;;;;;;21.40;7.30;;;10.70;99.90;;;;;;5071372;28;20023;-44
2022/10/02 04:05:35;;;;;;;32.45;8.40;;;10.70;99.90;;;;;;5071868;28;20381;-44
2022/10/02 04:08:16;;;;;;;29.50;9.48;;;10.70;99.90;;;;;;5071604;28;20032;-44
2022/10/02 04:11:10;;;;;;;26.77;9.27;;;10.70;99.90;;;;;;5071998;28;20029;-45
2022/10/02 04:13:47;;;;;;;28.90;9.48;;;10.70;99.90;;;;;;5071629;28;20032;-44
2022/10/02 04:16:54;;;;;;;31.17;9.02;;;10.70;99.90;;;;;;5071423;28;20020;-44
2022/10/02 04:19:28;;;;;;;33.20;9.98;;;10.80;99.90;;;;;;5049482;28;20056;-46
2022/10/02 04:22:06;;;;;;;20.10;8.63;;;10.80;99.90;;;;;;5071906;28;20021;-45
2022/10/02 04:24:46;;;;;;;32.25;9.88;;;10.80;99.90;;;;;;5071230;28;20020;-45
2022/10/02 04:27:22;;;;;;;40.67;10.68;;;10.90;99.90;;;;;;5071610;28;20070;-45
2022/10/02 04:29:54;;;;;;;26.80;9.63;;;10.90;99.90;;;;;;5070097;28;20071;-44
2022/10/02 04:32:29;;;;;;;40.67;10.75;;;10.90;99.90;;;;;;5071485;28;20478;-44
2022/10/02 04:34:54;;;;;;;38.00;10.68;;;10.90;99.90;;;;;;5071348;28;20101;-46
2022/10/02 04:37:44;;;;;;;44.83;11.48;;;10.90;99.90;;;;;;5071193;28;20028;-44
2022/10/02 04:40:25;;;;;;;32.05;9.95;;;11.00;99.90;;;;;;5071185;28;20052;-44
2022/10/02 04:43:11;;;;;;;33.35;10.75;;;11.00;99.90;;;;;;5070904;28;20027;-45
2022/10/02 04:46:10;;;;;;;31.02;12.43;;;11.00;99.90;;;;;;5070975;28;20085;-44
2022/10/02 04:48:44;;;;;;;27.00;11.40;;;11.00;99.90;;;;;;5052229;28;20017;-44
2022/10/02 04:51:49;;;;;;;28.55;10.80;;;11.00;99.90;;;;;;5068934;28;20021;-44
2022/10/02 04:54:51;;;;;;;30.17;11.23;;;10.90;99.90;;;;;;5070125;28;20082;-44
2022/10/02 04:57:26;;;;;;;28.20;11.77;;;10.90;99.90;;;;;;5070745;28;20555;-43
2022/10/02 05:00:12;;;;;;;36.05;10.88;;;10.90;99.90;;;;;;5070661;28;20117;-44
2022/10/02 05:02:51;;;;;;;28.10;11.57;;;10.90;99.90;;;;;;5068901;28;20032;-44
2022/10/02 05:05:35;;;;;;;31.55;12.00;;;10.90;99.90;;;;;;5069745;28;20021;-44
2022/10/02 05:08:08;;;;;;;32.40;11.55;;;10.90;99.90;;;;;;5069179;28;20040;-44
2022/10/02 05:11:06;;;;;;;37.20;12.68;;;10.90;99.90;;;;;;5070599;28;20486;-44
2022/10/02 05:13:40;;;;;;;26.92;11.35;;;10.80;99.90;;;;;;5069982;28;20064;-45
2022/10/02 05:16:44;;;;;;;33.17;12.23;;;10.80;99.90;;;;;;5070445;28;20546;-44
2022/10/02 05:19:58;;;;;;;40.40;13.23;;;10.80;99.90;;;;;;5057461;28;20045;-46
2022/10/02 05:22:59;;;;;;;26.88;12.27;;;10.90;99.90;;;;;;5030332;28;20487;-43
2022/10/02 05:25:47;;;;;;;33.88;12.15;;;10.90;99.90;;;;;;5040081;28;20545;-44
2022/10/02 05:28:30;;;;;;;38.05;12.80;;;10.90;99.90;;;;;;5039557;28;20049;-44
2022/10/02 05:31:29;;;;;;;39.78;12.35;;;11.00;99.90;;;;;;5040987;28;20155;-44
2022/10/02 05:34:32;;;;;;;36.88;13.70;;;11.00;99.90;;;;;;5039511;28;20025;-43
2022/10/02 05:37:30;;;;;;;32.47;13.60;;;11.10;99.90;;;;;;5040411;28;20033;-44
2022/10/02 05:40:35;;;;;;;38.67;13.57;;;11.10;99.90;;;;;;5040309;28;20029;-45
2022/10/02 05:43:09;;;;;;;29.02;14.18;;;11.20;99.90;;;;;;5040536;28;20033;-44
2022/10/02 05:45:38;;;;;;;28.23;13.00;;;11.20;99.90;;;;;;5038620;28;20053;-44
2022/10/02 05:48:16;;;;;;;39.03;13.75;;;11.20;99.90;;;;;;5041693;28;20029;-44
2022/10/02 05:50:45;;;;;;;37.75;14.82;;;11.20;99.90;;;;;;5043081;28;20037;-44
2022/10/02 05:53:29;;;;;;;34.38;14.82;;;11.30;99.90;;;;;;5037077;28;20086;-44
2022/10/02 05:56:00;;;;;;;37.15;14.52;;;11.30;99.90;;;;;;5040732;28;20024;-44
2022/10/02 05:58:37;;;;;;;35.63;14.60;;;11.40;99.90;;;;;;5040738;28;20431;-44
2022/10/02 06:01:17;;;;;;;32.40;14.60;;;11.50;99.90;;;;;;5037435;28;20683;-44
2022/10/02 06:03:54;;;;;;;37.22;14.88;;;11.60;99.90;;;;;;5038243;28;20040;-43
2022/10/02 06:06:43;;;;;;;34.70;13.65;;;11.70;99.90;;;;;;5037876;28;20025;-43
2022/10/02 06:09:32;;;;;;;37.22;15.05;;;11.80;99.90;;;;;;5038725;28;20024;-44
2022/10/02 06:12:10;;;;;;;42.85;13.98;;;11.80;99.90;;;;;;5040073;28;20038;-44
2022/10/02 06:14:40;;;;;;;34.50;13.57;;;11.90;99.90;;;;;;5039123;28;20022;-44
2022/10/02 06:17:46;;;;;;;31.80;13.63;;;12.00;99.90;;;;;;5039532;28;20013;-44
2022/10/02 06:20:18;;;;;;;26.48;12.45;;;12.00;99.90;;;;;;5048673;28;20124;-45
2022/10/02 06:23:02;;;;;;;32.13;12.85;;;12.00;99.90;;;;;;5048896;28;20490;-45
2022/10/02 06:25:32;;;;;;;32.65;13.15;;;12.10;99.90;;;;;;5049797;28;20025;-44
2022/10/02 06:28:13;;;;;;;28.50;14.13;;;12.00;99.90;;;;;;5049399;28;20478;-44
2022/10/02 06:30:40;;;;;;;;;;;12.00;99.90;;;;;;5049818;28;20040;-44
2022/10/02 06:33:19;;;;;;;31.58;14.90;;;12.00;99.90;;;;;;5045987;28;19931;-45
2022/10/02 06:35:56;;;;;;;33.35;14.93;;;12.00;99.90;;;;;;5029695;28;20056;-44
2022/10/02 06:38:57;;;;;;;32.97;14.55;;;12.00;99.90;;;;;;5028415;28;20029;-45
2022/10/02 06:41:46;;;;;;;32.00;14.88;;;12.00;99.90;;;;;;5027662;28;20043;-43
2022/10/02 06:44:46;;;;;;;40.45;16.33;;;12.00;99.90;;;;;;5029460;28;20550;-44
2022/10/02 06:47:35;;;;;;;40.03;17.67;;;12.10;99.90;;;;;;5032952;28;20021;-44
2022/10/02 06:50:38;;;;;;;40.10;15.57;;;12.20;99.90;;;;;;5053834;28;20024;-44
2022/10/02 06:53:10;;;;;;;34.80;16.75;;;12.20;99.90;;;;;;5068453;28;20020;-44
2022/10/02 06:55:47;;;;;;;34.80;17.75;;;12.30;99.90;;;;;;5069188;28;20032;-44
2022/10/02 06:58:25;;;;;;;28.92;14.90;;;12.30;99.90;;;;;;5069406;28;20036;-45
2022/10/02 07:01:01;;;;;;;34.03;18.27;;;12.30;99.90;;;;;;5069190;28;20440;-44
2022/10/02 07:03:41;;;;;;;38.47;16.60;;;12.40;99.90;;;;;;5068877;28;20024;-45
2022/10/02 07:06:11;;;;;;;41.28;17.63;;;12.60;99.90;;;;;;5069226;28;20534;-44
2022/10/02 07:08:59;;;;;;;46.58;16.77;;;12.70;99.90;;;;;;5067418;28;20085;-44
2022/10/02 07:11:45;;;;;;;35.67;17.48;;;12.80;99.90;;;;;;5069007;28;20035;-44
2022/10/02 07:14:46;;;;;;;31.13;15.00;;;12.90;99.90;;;;;;5051587;28;20040;-46
2022/10/02 07:17:39;;;;;;;30.60;14.68;;;13.10;99.90;;;;;;5028882;28;20099;-44
2022/10/02 07:20:35;;;;;;;36.72;15.25;;;13.20;99.90;;;;;;5038986;28;20490;-46
2022/10/02 07:23:17;;;;;;;35.33;13.98;;;13.10;99.90;;;;;;5039261;28;20025;-44
2022/10/02 07:26:10;;;;;;;30.63;15.02;;;13.10;99.90;;;;;;5038315;28;20120;-44
2022/10/02 07:28:48;;;;;;;32.03;14.35;;;13.10;99.90;;;;;;5036922;28;20538;-44
2022/10/02 07:31:23;;;;;;;27.58;14.35;;;13.10;99.90;;;;;;5040522;28;20021;-45
2022/10/02 07:34:00;;;;;;;37.28;14.05;;;13.10;99.90;;;;;;5041058;28;20116;-45
2022/10/02 07:36:49;;;;;;;28.83;13.80;;;13.20;99.90;;;;;;5042837;28;20104;-45
2022/10/02 07:39:34;;;;;;;33.78;13.80;;;13.20;99.90;;;;;;5040761;28;20025;-45
2022/10/02 07:42:08;;;;;;;28.77;13.35;;;13.30;99.90;;;;;;5041535;28;20033;-44
2022/10/02 07:44:53;;;;;;;27.08;13.10;;;13.40;99.90;;;;;;5040503;28;20024;-44
2022/10/02 07:47:41;;;;;;;28.80;13.38;;;13.60;99.90;;;;;;5039028;28;20025;-44
2022/10/02 07:50:52;;;;;;;29.60;12.18;;;13.70;99.90;;;;;;5042051;28;20024;-43
2022/10/02 07:53:27;;;;;;;25.00;11.10;;;13.80;99.90;;;;;;5037413;28;20045;-45
2022/10/02 07:55:54;;;;;;;24.70;11.95;;;14.00;99.90;;;;;;5041316;28;20035;-45
2022/10/02 07:58:33;;;;;;;24.20;10.52;;;14.20;99.90;;;;;;5041138;28;20532;-45
2022/10/02 08:01:02;;;;;;;24.42;11.05;;;14.40;99.90;;;;;;5057242;28;20060;-46
2022/10/02 08:03:38;;;;;;;26.98;10.45;;;14.70;99.90;;;;;;5038632;28;20013;-44
2022/10/02 08:06:05;;;;;;;29.40;11.90;;;14.70;99.90;;;;;;5040525;28;20653;-45
2022/10/02 08:08:49;;;;;;;26.60;12.77;;;14.50;99.90;;;;;;5040707;28;20045;-46
2022/10/02 08:11:42;;;;;;;31.65;12.57;;;14.20;99.90;;;;;;5041107;28;20020;-45
2022/10/02 08:14:18;;;;;;;34.00;14.38;;;13.80;99.90;;;;;;5038410;28;20151;-48
2022/10/02 08:16:48;;;;;;;33.45;13.70;;;13.70;99.90;;;;;;5040792;28;20025;-45
2022/10/02 08:19:18;;;;;;;25.95;12.10;;;13.70;99.90;;;;;;5040178;28;20053;-45
2022/10/02 08:22:20;;;;;;;27.40;12.10;;;13.70;99.90;;;;;;5045964;28;20494;-45
2022/10/02 08:24:51;;;;;;;26.20;13.15;;;13.80;99.90;;;;;;5036838;28;20021;-45
2022/10/02 08:27:45;;;;;;;30.15;12.82;;;13.90;99.90;;;;;;5039450;28;20025;-46
2022/10/02 08:30:12;;;;;;;24.45;11.73;;;14.00;99.90;;;;;;5038967;28;20075;-45
2022/10/02 08:32:38;;;;;;;28.23;11.60;;;14.40;99.90;;;;;;5038752;28;20614;-47
2022/10/02 08:35:15;;;;;;;26.65;10.18;;;14.90;99.90;;;;;;5038442;28;20036;-46
2022/10/02 08:37:53;;;;;;;17.75;8.55;;;15.40;99.90;;;;;;5038964;28;20021;-45
2022/10/02 08:41:03;;;;;;;20.63;8.55;;;15.70;99.90;;;;;;5040320;28;20021;-45
2022/10/02 08:43:52;;;;;;;22.77;9.33;;;15.90;99.90;;;;;;5040901;28;20017;-46
2022/10/02 08:46:45;;;;;;;30.97;8.67;;;16.20;99.90;;;;;;5038706;28;20021;-45
2022/10/02 08:49:21;;;;;;;20.05;8.50;;;16.00;99.90;;;;;;5039620;28;20013;-45
2022/10/02 08:52:05;;;;;;;15.70;6.32;;;16.40;99.90;;;;;;5050669;28;20025;-46
2022/10/02 08:54:37;;;;;;;18.55;6.35;;;17.40;99.90;;;;;;5050093;28;20659;-46
2022/10/02 08:57:20;;;;;;;20.38;6.72;;;18.20;99.90;;;;;;5050847;28;20028;-46
2022/10/02 08:59:49;;;;;;;15.40;5.63;;;18.10;99.90;;;;;;5050774;28;20036;-45
2022/10/02 09:02:27;;;;;;;15.75;5.35;;;18.20;99.90;;;;;;5050213;28;20017;-46
2022/10/02 09:05:12;;;;;;;11.18;5.55;;;18.00;99.90;;;;;;5049585;28;20028;-46
2022/10/02 09:08:00;;;;;;;21.45;5.38;;;17.80;99.90;;;;;;5050187;28;20401;-46
2022/10/02 09:10:50;;;;;;;16.70;5.72;;;17.30;99.90;;;;;;5049578;28;20025;-46
2022/10/02 09:13:30;;;;;;;15.85;6.57;;;16.50;99.90;;;;;;5035919;28;20029;-45
2022/10/02 09:16:09;;;;;;;16.95;6.18;;;16.60;99.90;;;;;;5051437;28;20061;-46
2022/10/02 09:19:10;;;;;;;16.27;5.68;;;17.10;99.90;;;;;;5051415;28;20423;-46
2022/10/02 09:21:57;;;;;;;15.85;5.60;;;17.80;99.90;;;;;;5051352;28;20082;-45
2022/10/02 09:24:42;;;;;;;18.40;5.03;;;18.00;99.90;;;;;;5049829;28;20486;-46
2022/10/02 09:27:28;;;;;;;17.05;5.18;;;18.70;99.90;;;;;;5051534;28;20048;-46
2022/10/02 09:30:20;;;;;;;16.17;4.47;;;19.50;99.90;;;;;;5050851;28;20024;-46
2022/10/02 09:33:07;;;;;;;13.27;4.57;;;20.40;99.90;;;;;;5041605;28;20040;-46
2022/10/02 09:36:03;;;;;;;14.88;3.97;;;20.60;99.90;;;;;;5050322;28;20040;-46
2022/10/02 09:39:05;;;;;;;17.95;4.35;;;20.80;99.90;;;;;;5040492;28;20029;-44
2022/10/02 09:41:53;;;;;;;12.35;3.83;;;20.80;99.90;;;;;;5031504;28;20470;-47
2022/10/02 09:44:55;;;;;;;11.05;3.60;;;21.20;98.90;;;;;;5044505;28;20048;-46
2022/10/02 09:47:51;;;;;;;11.27;3.67;;;22.00;98.60;;;;;;5046757;28;20075;-48
2022/10/02 09:51:06;;;;;;;11.30;3.38;;;23.40;96.10;;;;;;5040864;28;20459;-46
2022/10/02 09:57:34;;;;;;;11.10;3.38;;;22.40;94.80;;;;;;5035575;28;20138;-46
2022/10/02 10:00:12;;;;;;;11.57;3.17;;;21.60;96.30;;;;;;5043974;28;20031;-46
2022/10/02 10:03:16;;;;;;;10.82;3.03;;;21.80;96.10;;;;;;5048103;28;20021;-47
2022/10/02 10:06:13;;;;;;;9.32;3.10;;;22.10;97.10;;;;;;5046768;28;20033;-46
2022/10/02 10:08:48;;;;;;;13.00;3.17;;;21.90;96.80;;;;;;5038738;28;20033;-47
2022/10/02 10:11:37;;;;;;;11.10;2.83;;;22.10;96.00;;;;;;5050112;28;20025;-47
2022/10/02 10:14:36;;;;;;;11.30;2.90;;;21.80;94.20;;;;;;5048523;28;20120;-46
2022/10/02 10:17:08;;;;;;;9.55;2.72;;;21.40;95.30;;;;;;5049660;28;20669;-49
2022/10/02 10:20:01;;;;;;;17.35;3.28;;;20.60;95.60;;;;;;5039833;28;20037;-48
2022/10/02 10:22:51;;;;;;;8.07;2.78;;;19.80;96.20;;;;;;5039465;28;20025;-47
2022/10/02 10:25:31;;;;;;;11.60;3.08;;;20.30;98.00;;;;;;5039139;28;20029;-47
2022/10/02 10:28:43;;;;;;;9.30;3.28;;;20.50;97.20;;;;;;5037826;28;20018;-48
2022/10/02 10:31:36;;;;;;;11.30;2.83;;;21.20;94.60;;;;;;5038967;28;20527;-46
2022/10/02 10:34:17;;;;;;;10.55;2.70;;;22.20;94.40;;;;;;5034639;28;20379;-44
2022/10/02 10:40:29;;;;;;;10.43;2.58;;;23.20;92.90;;;;;;5049632;28;20086;-46
2022/10/02 10:43:22;;;;;;;9.63;2.40;;;21.80;91.80;;;;;;5047993;28;20025;-44
2022/10/02 10:45:54;;;;;;;8.93;2.67;;;20.90;93.60;;;;;;5049637;28;20048;-47
2022/10/02 10:48:39;;;;;;;15.32;2.75;;;19.60;94.60;;;;;;5049367;28;20072;-46
2022/10/02 10:51:29;;;;;;;10.52;2.90;;;19.10;96.30;;;;;;5049211;28;20025;-47
2022/10/02 10:54:21;;;;;;;16.77;2.90;;;19.80;97.00;;;;;;5048740;28;20013;-47
2022/10/02 10:57:03;;;;;;;9.70;2.75;;;21.60;93.80;;;;;;5049096;28;20017;-44
2022/10/02 10:59:48;;;;;;;8.90;2.50;;;23.20;90.80;;;;;;5049572;28;20022;-44
2022/10/02 11:02:53;;;;;;;6.68;2.30;;;23.90;88.20;;;;;;5050275;28;20021;-44
2022/10/02 11:05:37;;;;;;;9.75;2.80;;;23.20;86.40;;;;;;5053173;28;20017;-44
2022/10/02 11:08:17;;;;;;;8.80;2.85;;;21.20;90.90;;;;;;5053035;28;20036;-43
2022/10/02 11:11:07;;;;;;;13.65;2.70;;;20.00;92.60;;;;;;5053028;28;20390;-46
2022/10/02 11:13:46;;;;;;;12.40;2.83;;;19.30;93.70;;;;;;5041087;28;20059;-44
2022/10/02 11:16:53;;;;;;;9.30;2.38;;;18.80;95.50;;;;;;5046103;28;20025;-46
2022/10/02 11:19:31;;;;;;;7.18;2.38;;;18.70;95.90;;;;;;5052136;28;20107;-46
2022/10/02 11:22:52;;;;;;;9.68;2.67;;;19.20;96.70;;;;;;5052835;28;20255;-44
2022/10/02 11:25:32;;;;;;;14.50;2.88;;;19.00;95.50;;;;;;4971458;28;20093;-45
2022/10/02 11:28:20;;;;;;;7.35;2.47;;;19.00;96.50;;;;;;5043765;28;20465;-44
2022/10/02 11:31:19;;;;;;;14.68;2.85;;;20.60;95.50;;;;;;5052313;28;20243;-45
2022/10/02 11:34:03;;;;;;;12.82;2.72;;;21.90;91.70;;;;;;5052005;28;20021;-44
2022/10/02 11:36:41;;;;;;;8.77;2.30;;;23.30;90.60;;;;;;5052518;28;20017;-45
2022/10/02 11:39:41;;;;;;;7.28;2.33;;;24.30;85.20;;;;;;5052418;28;20029;-45
2022/10/02 11:42:33;;;;;;;6.45;2.10;;;24.50;82.90;;;;;;5052473;28;20029;-45
2022/10/02 11:45:11;;;;;;;11.82;2.72;;;25.00;83.10;;;;;;5052160;28;20177;-45
2022/10/02 11:47:50;;;;;;;8.15;2.78;;;25.90;77.00;;;;;;5052354;28;20025;-45
2022/10/02 11:50:36;;;;;;;7.35;2.38;;;26.30;78.30;;;;;;5052604;28;20502;-45
2022/10/02 11:53:34;;;;;;;11.90;2.38;;;27.10;74.90;;;;;;5051749;28;20239;-45
2022/10/02 11:56:13;;;;;;;7.40;2.35;;;26.10;72.10;;;;;;5052377;28;20017;-48
2022/10/02 11:58:48;;;;;;;8.13;2.03;;;26.00;75.40;;;;;;5050686;28;20028;-46
2022/10/02 12:01:51;;;;;;;9.52;2.17;;;26.70;74.50;;;;;;5042119;28;20070;-44
2022/10/02 12:04:24;;;;;;;5.72;2.03;;;26.40;69.10;;;;;;5042452;28;20022;-48
2022/10/02 12:07:26;;;;;;;8.65;2.28;;;26.60;70.50;;;;;;5045271;28;20249;-45
2022/10/02 12:10:23;;;;;;;9.75;2.60;;;26.30;69.00;;;;;;5039580;28;20018;-46
2022/10/02 12:13:14;;;;;;;10.02;2.65;;;25.50;72.30;;;;;;5033249;28;20033;-46
2022/10/02 12:16:06;;;;;;;7.07;2.30;;;24.40;74.80;;;;;;5032027;28;20108;-46
2022/10/02 12:18:50;;;;;;;7.55;2.17;;;23.40;75.70;;;;;;5031695;28;20029;-45
2022/10/02 12:28:11;;;;;;;8.73;2.22;;;19.70;91.80;;;;;;5032050;28;20068;-46
2022/10/02 12:31:01;;;;;;;10.50;2.58;;;18.30;96.70;;;;;;5032004;28;20049;-45
2022/10/02 12:33:52;;;;;;;9.00;2.08;;;17.50;99.90;;;;;;5031210;28;20022;-45
2022/10/02 12:36:57;;;;;;;7.32;1.85;;;16.80;99.90;;;;;;5031428;28;20505;-46
2022/10/02 12:39:42;;;;;;;4.32;1.60;;;16.50;99.90;;;;;;5031321;28;20104;-45
2022/10/02 12:42:27;;;;;;;8.25;1.60;;;16.20;99.90;;;;;;5031209;28;20014;-46
2022/10/02 12:45:27;;;;;;;6.20;1.58;;;16.10;99.90;;;;;;5031147;28;20057;-46
2022/10/02 12:48:25;;;;;;;9.68;1.98;;;15.90;99.90;;;;;;5030960;28;20017;-45
2022/10/02 12:51:20;;;;;;;7.03;1.92;;;16.00;99.90;;;;;;5031198;28;20025;-45
2022/10/02 12:53:57;;;;;;;9.63;2.63;;;16.20;99.90;;;;;;5030493;28;20360;-45
2022/10/02 12:56:48;;;;;;;4.75;1.50;;;16.80;99.90;;;;;;5029646;28;20033;-45
2022/10/02 12:59:40;;;;;;;9.70;1.83;;;17.40;99.90;;;;;;5029806;28;20102;-45
2022/10/02 13:02:39;;;;;;;4.25;2.08;;;17.60;99.90;;;;;;5029677;28;20064;-46
2022/10/02 13:05:24;;;;;;;7.03;1.90;;;17.90;99.90;;;;;;5030941;28;20632;-45
2022/10/02 13:08:08;;;;;;;6.95;2.30;;;18.20;99.90;;;;;;5029318;28;20021;-46
2022/10/02 13:10:56;;;;;;;8.85;2.35;;;18.20;99.90;;;;;;5030694;28;20022;-45
2022/10/02 13:13:34;;;;;;;5.78;1.88;;;18.80;99.90;;;;;;5030155;28;20021;-45
2022/10/02 13:16:08;;;;;;;10.07;2.75;;;19.00;99.90;;;;;;5030555;28;20501;-45
2022/10/02 13:18:57;;;;;;;9.90;2.58;;;19.10;99.90;;;;;;5030422;28;20037;-46
2022/10/02 13:21:47;;;;;;;11.23;2.22;;;18.90;99.90;;;;;;5030474;28;20029;-45
2022/10/02 13:24:38;;;;;;;9.50;2.25;;;18.80;99.90;;;;;;5029476;28;20024;-45
2022/10/02 13:27:15;;;;;;;18.58;3.17;;;18.60;99.90;;;;;;5030537;28;20030;-45
2022/10/02 13:30:16;;;;;;;7.28;2.25;;;18.90;99.90;;;;;;5030255;28;20255;-46
2022/10/02 13:33:03;;;;;;;11.15;2.38;;;19.00;99.90;;;;;;5030040;28;20076;-46
2022/10/02 13:35:37;;;;;;;8.98;2.38;;;19.20;99.90;;;;;;5030527;28;20026;-45
2022/10/02 13:38:06;;;;;;;10.52;2.47;;;19.20;99.90;;;;;;5030085;28;20076;-46
2022/10/02 13:40:45;;;;;;;7.07;1.80;;;19.30;99.90;;;;;;5033482;28;20032;-45
2022/10/02 13:43:29;;;;;;;10.13;2.72;;;19.20;99.90;;;;;;5047406;28;20017;-45
2022/10/02 13:46:12;;;;;;;10.20;2.40;;;19.30;99.90;;;;;;5049949;28;20092;-49
2022/10/02 13:48:59;;;;;;;10.52;2.17;;;19.00;99.90;;;;;;5049926;28;20020;-47
2022/10/02 13:51:39;;;;;;;12.05;3.13;;;19.00;99.90;;;;;;5050126;28;20521;-46
2022/10/02 13:54:29;;;;;;;6.40;1.83;;;19.10;99.90;;;;;;5049396;28;20167;-46
2022/10/02 13:57:37;;;;;;;10.68;2.95;;;19.00;99.90;;;;;;5046670;28;20028;-49
2022/10/02 14:00:36;;;;;;;7.90;2.20;;;18.70;99.90;;;;;;5039604;28;20076;-47
2022/10/02 14:03:08;;;;;;;8.23;2.65;;;18.20;99.90;;;;;;5039244;28;20307;-47
2022/10/02 14:05:44;;;;;;;8.50;1.90;;;17.90;99.90;;;;;;5038503;28;20092;-45
2022/10/02 14:08:46;;;;;;;9.32;2.28;;;17.60;99.90;;;;;;5038186;28;20024;-48